createdAt,value
2023-02-20T00:00:37.985Z,72.73
2023-02-20T00:05:59.686Z,73.54
2023-02-20T00:11:03.278Z,73.87
2023-02-20T00:16:07.387Z,74.10
2023-02-20T00:21:10.240Z,73.29
2023-02-20T00:26:15.190Z,73.69
2023-02-20T00:31:20.044Z,74.15
2023-02-20T00:36:23.054Z,74.48
2023-02-20T00:41:26.061Z,74.19
2023-02-20T00:46:29.826Z,73.72
2023-02-20T00:51:33.813Z,73.36
2023-02-20T00:56:36.722Z,73.01
2023-02-20T01:01:40.097Z,72.78
2023-02-20T01:06:43.595Z,72.63
2023-02-20T01:11:46.662Z,72.12
2023-02-20T01:16:52.441Z,71.51
2023-02-20T01:21:55.946Z,71.37
2023-02-20T01:26:59.113Z,71.28
2023-02-20T01:32:02.167Z,71.13
2023-02-20T01:37:05.381Z,71.11
2023-02-20T01:42:17.949Z,70.72
2023-02-20T01:47:25.523Z,70.61
2023-02-20T01:52:32.071Z,70.75
2023-02-20T01:57:38.607Z,70.66
2023-02-20T02:02:46.380Z,70.35
2023-02-20T02:07:49.450Z,70.42
2023-02-20T02:12:54.792Z,70.23
2023-02-20T02:18:22.065Z,70.55
2023-02-20T02:24:01.829Z,70.37
2023-02-20T02:29:49.993Z,70.62
2023-02-20T02:34:58.633Z,70.75
2023-02-20T02:40:11.773Z,70.76
2023-02-20T02:45:14.584Z,71.01
2023-02-20T02:50:24.036Z,71.27
2023-02-20T02:55:34.006Z,71.54
2023-02-20T03:01:08.014Z,71.73
2023-02-20T03:06:16.885Z,71.43
2023-02-20T03:11:22.348Z,71.40
2023-02-20T03:16:32.787Z,71.32
2023-02-20T03:21:37.376Z,71.35
2023-02-20T03:26:44.376Z,71.25
2023-02-20T03:32:12.401Z,71.34
2023-02-20T03:37:40.977Z,71.25
2023-02-20T03:43:09.181Z,71.13
2023-02-20T03:48:16.996Z,71.04
2023-02-20T03:53:20.105Z,70.93
2023-02-20T03:58:26.180Z,70.85
2023-02-20T04:03:35.128Z,70.95
2023-02-20T04:08:44.788Z,70.92
2023-02-20T04:13:49.541Z,70.90
2023-02-20T04:18:53.095Z,71.06
2023-02-20T04:24:20.022Z,71.07
2023-02-20T04:29:23.129Z,71.08
2023-02-20T04:34:26.355Z,71.23
2023-02-20T04:39:29.241Z,71.33
2023-02-20T04:44:32.455Z,71.43
2023-02-20T04:49:35.455Z,71.49
2023-02-20T04:54:38.357Z,71.66
2023-02-20T04:59:41.708Z,71.87
2023-02-20T05:04:44.620Z,72.11
2023-02-20T05:09:48.104Z,72.31
2023-02-20T05:14:51.105Z,72.84
2023-02-20T05:19:54.007Z,72.75
2023-02-20T05:24:57.223Z,72.78
2023-02-20T05:30:01.049Z,72.87
2023-02-20T05:35:03.948Z,72.84
2023-02-20T05:40:07.205Z,72.66
2023-02-20T05:45:10.274Z,72.54
2023-02-20T05:50:13.174Z,72.57
2023-02-20T05:55:16.485Z,72.70
2023-02-20T06:00:20.179Z,72.58
2023-02-20T06:05:25.849Z,72.70
2023-02-20T06:10:28.786Z,72.61
2023-02-20T06:15:31.581Z,72.38
2023-02-20T06:20:34.495Z,72.50
2023-02-20T06:25:37.508Z,72.72
2023-02-20T06:30:40.432Z,72.79
2023-02-20T06:35:43.513Z,72.82
2023-02-20T06:40:46.438Z,73.05
2023-02-20T06:45:49.320Z,73.04
2023-02-20T06:50:55.505Z,73.64
2023-02-20T06:55:58.407Z,74.24
2023-02-20T07:01:01.370Z,75.32
2023-02-20T07:06:04.769Z,76.11
2023-02-20T07:11:08.075Z,77.02
2023-02-20T07:16:11.545Z,77.47
2023-02-20T07:21:14.975Z,77.86
2023-02-20T07:26:19.720Z,78.31
2023-02-20T07:31:22.641Z,78.65
2023-02-20T07:36:26.040Z,78.80
2023-02-20T07:41:36.286Z,79.30
2023-02-20T07:46:39.237Z,79.94
2023-02-20T07:51:42.130Z,80.28
2023-02-20T07:56:45.063Z,80.77
2023-02-20T08:01:47.967Z,80.95
2023-02-20T08:06:51.052Z,81.55
2023-02-20T08:11:53.957Z,81.78
2023-02-20T08:16:57.364Z,81.75
2023-02-20T08:22:00.163Z,81.84
2023-02-20T08:27:03.677Z,82.35
2023-02-20T08:32:06.713Z,83.08
2023-02-20T08:37:10.275Z,83.55
2023-02-20T08:42:16.943Z,83.92
2023-02-20T08:47:21.242Z,83.98
2023-02-20T08:52:24.246Z,84.11
2023-02-20T08:57:27.657Z,84.29
2023-02-20T09:02:30.690Z,84.66
2023-02-20T09:07:33.772Z,84.83
2023-02-20T09:12:36.884Z,84.96
2023-02-20T09:17:40.092Z,85.00
2023-02-20T09:22:43.447Z,84.90
2023-02-20T09:27:46.421Z,84.79
2023-02-20T09:32:50.685Z,84.68
2023-02-20T09:37:54.544Z,84.74
2023-02-20T09:43:22.488Z,84.97
2023-02-20T09:48:47.288Z,84.93
2023-02-20T09:54:03.207Z,84.89
2023-02-20T09:59:17.987Z,85.08
2023-02-20T10:04:26.171Z,85.69
2023-02-20T10:09:29.117Z,85.14
2023-02-20T10:14:50.146Z,85.12
2023-02-20T10:19:53.060Z,85.21
2023-02-20T10:25:23.906Z,84.80
2023-02-20T10:30:40.414Z,84.52
2023-02-20T10:35:53.476Z,84.21
2023-02-20T10:41:21.202Z,83.96
2023-02-20T10:46:48.238Z,83.95
2023-02-20T10:51:59.809Z,83.68
2023-02-20T10:57:26.280Z,83.94
2023-02-20T11:02:35.142Z,84.06
2023-02-20T11:07:38.446Z,84.26
2023-02-20T11:13:00.499Z,84.19
2023-02-20T11:18:16.817Z,84.28
2023-02-20T11:23:38.466Z,84.55
2023-02-20T11:28:42.438Z,84.52
2023-02-20T11:33:48.262Z,84.31
2023-02-20T11:38:59.494Z,84.28
2023-02-20T11:44:24.708Z,83.92
2023-02-20T11:49:29.358Z,84.20
2023-02-20T11:54:32.964Z,84.46
2023-02-20T11:59:40.988Z,84.39
2023-02-20T12:05:01.865Z,84.64
2023-02-20T12:10:29.598Z,85.16
2023-02-20T12:15:32.807Z,85.57
2023-02-20T12:20:44.615Z,85.83
2023-02-20T12:26:03.004Z,86.02
2023-02-20T12:31:38.600Z,86.40
2023-02-20T12:36:43.748Z,86.63
2023-02-20T12:42:13.141Z,86.63
2023-02-20T12:47:18.192Z,86.70
2023-02-20T12:52:46.408Z,87.12
2023-02-20T12:58:01.378Z,87.12
2023-02-20T13:03:24.460Z,87.14
2023-02-20T13:08:53.890Z,87.08
2023-02-20T13:14:15.020Z,86.25
2023-02-20T13:19:33.072Z,86.43
2023-02-20T13:24:39.266Z,86.83
2023-02-20T13:29:59.368Z,86.93
2023-02-20T13:35:53.877Z,86.94
2023-02-20T13:40:56.683Z,87.10
2023-02-20T13:46:04.103Z,87.13
2023-02-20T13:51:18.768Z,87.35
2023-02-20T13:56:27.055Z,87.55
2023-02-20T14:01:30.233Z,87.75
2023-02-20T14:06:33.589Z,87.62
2023-02-20T14:11:39.128Z,87.50
2023-02-20T14:16:46.603Z,87.45
2023-02-20T14:21:49.715Z,87.36
2023-02-20T14:26:56.189Z,87.21
2023-02-20T14:32:02.167Z,87.43
2023-02-20T14:37:22.696Z,87.46
2023-02-20T14:42:26.008Z,87.22
2023-02-20T14:47:29.971Z,87.22
2023-02-20T14:52:32.787Z,87.21
2023-02-20T14:57:35.945Z,87.26
2023-02-20T15:02:43.012Z,87.44
2023-02-20T15:07:47.042Z,87.67
2023-02-20T15:12:57.463Z,87.89
2023-02-20T15:18:35.178Z,87.36
2023-02-20T15:23:42.395Z,86.04
2023-02-20T15:28:45.289Z,82.12
2023-02-20T15:33:53.053Z,80.65
2023-02-20T15:38:57.751Z,83.06
2023-02-20T15:44:00.556Z,84.72
2023-02-20T15:49:07.165Z,85.47
2023-02-20T15:54:17.430Z,85.68
2023-02-20T15:59:20.334Z,85.60
2023-02-20T16:04:23.244Z,85.90
2023-02-20T16:09:26.772Z,86.27
2023-02-20T16:14:29.858Z,86.66
2023-02-20T16:19:42.101Z,86.47
2023-02-20T16:24:47.351Z,85.73
2023-02-20T16:29:50.954Z,86.07
2023-02-20T16:34:55.923Z,86.75
2023-02-20T16:39:58.827Z,86.74
2023-02-20T16:45:13.191Z,86.86
2023-02-20T16:50:21.239Z,86.74
2023-02-20T16:55:33.749Z,86.42
2023-02-20T17:00:54.951Z,86.49
2023-02-20T17:06:00.137Z,86.57
2023-02-20T17:11:03.755Z,86.78
2023-02-20T17:16:07.006Z,86.92
2023-02-20T17:21:10.977Z,86.99
2023-02-20T17:26:14.414Z,86.91
2023-02-20T17:31:17.389Z,86.79
2023-02-20T17:36:20.324Z,87.07
2023-02-20T17:41:23.238Z,87.15
2023-02-20T17:46:26.155Z,87.07
2023-02-20T17:51:29.041Z,87.01
2023-02-20T17:56:31.942Z,86.61
2023-02-20T18:01:35.264Z,86.42
2023-02-20T18:06:39.385Z,86.48
2023-02-20T18:11:43.521Z,86.63
2023-02-20T18:16:46.929Z,86.54
2023-02-20T18:21:52.089Z,86.50
2023-02-20T18:26:55.302Z,85.75
2023-02-20T18:31:58.483Z,85.73
2023-02-20T18:37:02.193Z,85.56
2023-02-20T18:42:05.142Z,85.74
2023-02-20T18:47:09.475Z,85.72
2023-02-20T18:52:12.281Z,85.36
2023-02-20T18:57:15.203Z,85.35
2023-02-20T19:02:18.659Z,85.04
2023-02-20T19:07:21.604Z,84.28
2023-02-20T19:12:24.516Z,83.72
2023-02-20T19:17:27.532Z,83.63
2023-02-20T19:22:30.625Z,83.41
2023-02-20T19:27:33.537Z,83.37
2023-02-20T19:32:36.633Z,83.79
2023-02-20T19:37:39.657Z,84.05
2023-02-20T19:42:42.505Z,83.73
2023-02-20T19:47:46.371Z,82.95
2023-02-20T19:52:49.692Z,82.15
2023-02-20T19:57:52.801Z,81.68
2023-02-20T20:02:58.369Z,81.35
2023-02-20T20:08:01.374Z,80.94
2023-02-20T20:13:06.657Z,80.07
2023-02-20T20:18:10.624Z,79.19
2023-02-20T20:23:13.995Z,78.67
2023-02-20T20:28:16.981Z,78.54
2023-02-20T20:33:19.884Z,78.13
2023-02-20T20:38:22.720Z,77.99
2023-02-20T20:43:25.486Z,77.56
2023-02-20T20:48:28.286Z,76.94
2023-02-20T20:53:31.095Z,76.66
2023-02-20T20:58:34.148Z,76.21
2023-02-20T21:03:37.106Z,76.03
2023-02-20T21:08:40.004Z,75.73
2023-02-20T21:13:47.410Z,75.26
2023-02-20T21:18:51.244Z,74.52
2023-02-20T21:23:54.555Z,73.99
2023-02-20T21:28:57.569Z,73.44
2023-02-20T21:34:01.728Z,72.66
2023-02-20T21:39:05.828Z,72.30
2023-02-20T21:44:26.959Z,72.18
2023-02-20T21:49:33.651Z,72.10
2023-02-20T21:54:36.660Z,72.25
2023-02-20T21:59:39.461Z,72.35
2023-02-20T22:04:42.267Z,72.36
2023-02-20T22:10:03.497Z,72.36
2023-02-20T22:15:25.961Z,72.21
2023-02-20T22:20:47.927Z,71.99
2023-02-20T22:26:09.557Z,71.80
2023-02-20T22:31:31.651Z,71.41
2023-02-20T22:36:53.359Z,71.24
2023-02-20T22:42:18.486Z,70.70
2023-02-20T22:47:40.438Z,70.24
2023-02-20T22:53:01.977Z,69.94
2023-02-20T22:58:23.620Z,69.98
2023-02-20T23:03:44.956Z,69.63
2023-02-20T23:09:08.352Z,69.19
2023-02-20T23:14:29.782Z,68.80
2023-02-20T23:19:51.430Z,68.38
2023-02-20T23:25:13.581Z,68.03
2023-02-20T23:30:35.584Z,67.59
2023-02-20T23:35:56.966Z,67.29
2023-02-20T23:41:18.603Z,66.96
2023-02-20T23:46:39.843Z,66.35
2023-02-20T23:52:08.126Z,66.15
2023-02-20T23:57:36.437Z,66.12
